sensor_id;sensor_type;location;lat;lon;timestamp;temperature;humidity
46490;DHT22;32204;49.160;8.580;2022-10-23T00:01:56;13.90;99.90
46490;DHT22;32204;49.160;8.580;2022-10-23T00:04:22;13.90;99.90
46490;DHT22;32204;49.160;8.580;2022-10-23T00:06:51;13.90;99.90
46490;DHT22;32204;49.160;8.580;2022-10-23T00:09:20;13.90;99.90
46490;DHT22;32204;49.160;8.580;2022-10-23T00:11:46;13.90;99.90
46490;DHT22;32204;49.160;8.580;2022-10-23T00:14:13;13.90;99.90
46490;DHT22;32204;49.160;8.580;2022-10-23T00:16:39;13.90;99.90
46490;DHT22;32204;49.160;8.580;2022-10-23T00:19:05;14.00;99.90
46490;DHT22;32204;49.160;8.580;2022-10-23T00:21:30;14.00;99.90
46490;DHT22;32204;49.160;8.580;2022-10-23T00:23:56;14.00;99.90
46490;DHT22;32204;49.160;8.580;2022-10-23T00:26:22;14.00;99.90
46490;DHT22;32204;49.160;8.580;2022-10-23T00:28:50;14.10;99.90
46490;DHT22;32204;49.160;8.580;2022-10-23T00:31:17;14.10;99.90
46490;DHT22;32204;49.160;8.580;2022-10-23T00:33:43;14.00;99.90
46490;DHT22;32204;49.160;8.580;2022-10-23T00:36:11;14.00;99.90
46490;DHT22;32204;49.160;8.580;2022-10-23T00:38:37;14.00;99.90
46490;DHT22;32204;49.160;8.580;2022-10-23T00:41:04;13.90;99.90
46490;DHT22;32204;49.160;8.580;2022-10-23T00:43:30;13.80;99.90
46490;DHT22;32204;49.160;8.580;2022-10-23T00:45:57;13.80;99.90
46490;DHT22;32204;49.160;8.580;2022-10-23T00:48:24;13.80;99.90
46490;DHT22;32204;49.160;8.580;2022-10-23T00:50:50;13.90;99.90
46490;DHT22;32204;49.160;8.580;2022-10-23T00:53:17;13.90;99.90
46490;DHT22;32204;49.160;8.580;2022-10-23T00:55:46;13.90;99.90
46490;DHT22;32204;49.160;8.580;2022-10-23T00:58:15;13.80;99.90
46490;DHT22;32204;49.160;8.580;2022-10-23T01:00:48;13.70;99.90
46490;DHT22;32204;49.160;8.580;2022-10-23T01:03:16;13.60;99.90
46490;DHT22;32204;49.160;8.580;2022-10-23T01:05:58;13.70;99.90
46490;DHT22;32204;49.160;8.580;2022-10-23T01:08:34;13.70;99.90
46490;DHT22;32204;49.160;8.580;2022-10-23T01:11:11;13.70;99.90
46490;DHT22;32204;49.160;8.580;2022-10-23T01:13:41;13.70;99.90
46490;DHT22;32204;49.160;8.580;2022-10-23T01:18:44;13.90;99.90
46490;DHT22;32204;49.160;8.580;2022-10-23T01:24:34;13.70;99.90
46490;DHT22;32204;49.160;8.580;2022-10-23T01:38:02;13.50;99.90
46490;DHT22;32204;49.160;8.580;2022-10-23T01:43:10;13.30;99.90
46490;DHT22;32204;49.160;8.580;2022-10-23T01:45:43;13.30;99.90
46490;DHT22;32204;49.160;8.580;2022-10-23T01:48:14;13.40;99.90
46490;DHT22;32204;49.160;8.580;2022-10-23T01:50:42;13.40;99.90
46490;DHT22;32204;49.160;8.580;2022-10-23T01:53:08;13.50;99.90
46490;DHT22;32204;49.160;8.580;2022-10-23T01:55:36;13.40;99.90
46490;DHT22;32204;49.160;8.580;2022-10-23T01:58:03;13.40;99.90
46490;DHT22;32204;49.160;8.580;2022-10-23T02:00:31;13.40;99.90
46490;DHT22;32204;49.160;8.580;2022-10-23T02:02:58;13.50;99.90
46490;DHT22;32204;49.160;8.580;2022-10-23T02:05:28;13.60;99.90
46490;DHT22;32204;49.160;8.580;2022-10-23T02:07:54;13.60;99.90
46490;DHT22;32204;49.160;8.580;2022-10-23T02:10:21;13.70;99.90
46490;DHT22;32204;49.160;8.580;2022-10-23T02:13:06;13.70;99.90
46490;DHT22;32204;49.160;8.580;2022-10-23T02:20:43;13.90;99.90
46490;DHT22;32204;49.160;8.580;2022-10-23T02:23:32;13.80;99.90
46490;DHT22;32204;49.160;8.580;2022-10-23T02:28:39;13.60;99.90
46490;DHT22;32204;49.160;8.580;2022-10-23T02:31:09;13.60;99.90
46490;DHT22;32204;49.160;8.580;2022-10-23T02:33:37;13.60;99.90
46490;DHT22;32204;49.160;8.580;2022-10-23T02:36:04;13.60;99.90
46490;DHT22;32204;49.160;8.580;2022-10-23T02:38:34;13.60;99.90
46490;DHT22;32204;49.160;8.580;2022-10-23T02:52:23;13.40;99.90
46490;DHT22;32204;49.160;8.580;2022-10-23T02:57:40;13.10;99.90
46490;DHT22;32204;49.160;8.580;2022-10-23T03:02:45;12.70;99.90
46490;DHT22;32204;49.160;8.580;2022-10-23T03:05:16;12.60;99.90
46490;DHT22;32204;49.160;8.580;2022-10-23T03:07:44;12.70;99.90
46490;DHT22;32204;49.160;8.580;2022-10-23T03:10:10;12.80;99.90
46490;DHT22;32204;49.160;8.580;2022-10-23T03:12:36;12.90;99.90
46490;DHT22;32204;49.160;8.580;2022-10-23T03:15:03;13.10;99.90
46490;DHT22;32204;49.160;8.580;2022-10-23T03:17:29;13.10;99.90
46490;DHT22;32204;49.160;8.580;2022-10-23T03:19:55;13.10;99.90
46490;DHT22;32204;49.160;8.580;2022-10-23T03:22:20;13.00;99.90
46490;DHT22;32204;49.160;8.580;2022-10-23T03:24:46;13.00;99.90
46490;DHT22;32204;49.160;8.580;2022-10-23T03:27:11;13.10;99.90
46490;DHT22;32204;49.160;8.580;2022-10-23T03:29:37;13.00;99.90
46490;DHT22;32204;49.160;8.580;2022-10-23T03:32:03;13.00;99.90
46490;DHT22;32204;49.160;8.580;2022-10-23T03:34:29;13.00;99.90
46490;DHT22;32204;49.160;8.580;2022-10-23T03:36:54;13.20;99.90
46490;DHT22;32204;49.160;8.580;2022-10-23T03:39:20;13.20;99.90
46490;DHT22;32204;49.160;8.580;2022-10-23T03:41:46;13.20;99.90
46490;DHT22;32204;49.160;8.580;2022-10-23T03:44:11;13.20;99.90
46490;DHT22;32204;49.160;8.580;2022-10-23T03:46:37;13.20;99.90
46490;DHT22;32204;49.160;8.580;2022-10-23T03:49:03;13.30;99.90
46490;DHT22;32204;49.160;8.580;2022-10-23T03:51:28;13.20;99.90
46490;DHT22;32204;49.160;8.580;2022-10-23T03:53:54;13.30;99.90
46490;DHT22;32204;49.160;8.580;2022-10-23T03:56:20;13.30;99.90
46490;DHT22;32204;49.160;8.580;2022-10-23T03:58:46;13.30;99.90
46490;DHT22;32204;49.160;8.580;2022-10-23T04:01:12;13.20;99.90
46490;DHT22;32204;49.160;8.580;2022-10-23T04:03:37;13.20;99.90
46490;DHT22;32204;49.160;8.580;2022-10-23T04:06:03;13.20;99.90
46490;DHT22;32204;49.160;8.580;2022-10-23T04:08:29;13.20;99.90
46490;DHT22;32204;49.160;8.580;2022-10-23T04:10:54;13.00;99.90
46490;DHT22;32204;49.160;8.580;2022-10-23T04:13:20;13.00;99.90
46490;DHT22;32204;49.160;8.580;2022-10-23T04:15:50;13.00;99.90
46490;DHT22;32204;49.160;8.580;2022-10-23T04:18:16;13.10;99.90
46490;DHT22;32204;49.160;8.580;2022-10-23T04:20:42;13.20;99.90
46490;DHT22;32204;49.160;8.580;2022-10-23T04:23:07;13.30;99.90
46490;DHT22;32204;49.160;8.580;2022-10-23T04:25:33;13.30;99.90
46490;DHT22;32204;49.160;8.580;2022-10-23T04:27:58;13.20;99.90
46490;DHT22;32204;49.160;8.580;2022-10-23T04:30:24;13.30;99.90
46490;DHT22;32204;49.160;8.580;2022-10-23T04:32:50;13.40;99.90
46490;DHT22;32204;49.160;8.580;2022-10-23T04:35:16;13.50;99.90
46490;DHT22;32204;49.160;8.580;2022-10-23T04:37:42;13.60;99.90
46490;DHT22;32204;49.160;8.580;2022-10-23T04:40:08;13.50;99.90
46490;DHT22;32204;49.160;8.580;2022-10-23T04:42:34;13.40;99.90
46490;DHT22;32204;49.160;8.580;2022-10-23T04:45:00;13.40;99.90
46490;DHT22;32204;49.160;8.580;2022-10-23T04:47:25;13.50;99.90
46490;DHT22;32204;49.160;8.580;2022-10-23T04:49:51;13.60;99.90
46490;DHT22;32204;49.160;8.580;2022-10-23T04:52:16;13.70;99.90
46490;DHT22;32204;49.160;8.580;2022-10-23T04:54:42;13.70;99.90
46490;DHT22;32204;49.160;8.580;2022-10-23T04:57:07;13.90;99.90
46490;DHT22;32204;49.160;8.580;2022-10-23T04:59:33;14.00;99.90
46490;DHT22;32204;49.160;8.580;2022-10-23T05:01:59;14.00;99.90
46490;DHT22;32204;49.160;8.580;2022-10-23T05:04:24;14.10;99.90
46490;DHT22;32204;49.160;8.580;2022-10-23T05:06:50;14.10;99.90
46490;DHT22;32204;49.160;8.580;2022-10-23T05:09:16;14.10;99.90
46490;DHT22;32204;49.160;8.580;2022-10-23T05:11:41;14.20;99.90
46490;DHT22;32204;49.160;8.580;2022-10-23T05:14:07;14.30;99.90
46490;DHT22;32204;49.160;8.580;2022-10-23T05:16:49;14.20;99.90
46490;DHT22;32204;49.160;8.580;2022-10-23T05:19:30;14.20;99.90
46490;DHT22;32204;49.160;8.580;2022-10-23T05:21:58;14.20;99.90
46490;DHT22;32204;49.160;8.580;2022-10-23T05:24:24;14.20;99.90
46490;DHT22;32204;49.160;8.580;2022-10-23T05:26:51;14.10;99.90
46490;DHT22;32204;49.160;8.580;2022-10-23T05:29:20;14.00;99.90
46490;DHT22;32204;49.160;8.580;2022-10-23T05:31:50;13.90;99.90
46490;DHT22;32204;49.160;8.580;2022-10-23T05:34:18;13.80;99.90
46490;DHT22;32204;49.160;8.580;2022-10-23T05:36:45;13.80;99.90
46490;DHT22;32204;49.160;8.580;2022-10-23T05:39:11;13.70;99.90
46490;DHT22;32204;49.160;8.580;2022-10-23T05:41:36;13.70;99.90
46490;DHT22;32204;49.160;8.580;2022-10-23T05:44:02;13.70;99.90
46490;DHT22;32204;49.160;8.580;2022-10-23T05:46:28;13.80;99.90
46490;DHT22;32204;49.160;8.580;2022-10-23T05:48:54;13.90;99.90
46490;DHT22;32204;49.160;8.580;2022-10-23T05:51:20;13.90;99.90
46490;DHT22;32204;49.160;8.580;2022-10-23T05:53:48;13.80;99.90
46490;DHT22;32204;49.160;8.580;2022-10-23T05:56:14;13.70;99.90
46490;DHT22;32204;49.160;8.580;2022-10-23T05:58:39;13.60;99.90
46490;DHT22;32204;49.160;8.580;2022-10-23T06:01:10;13.70;99.90
46490;DHT22;32204;49.160;8.580;2022-10-23T06:03:37;13.70;99.90
46490;DHT22;32204;49.160;8.580;2022-10-23T06:06:10;13.70;99.90
46490;DHT22;32204;49.160;8.580;2022-10-23T06:08:36;13.80;99.90
46490;DHT22;32204;49.160;8.580;2022-10-23T06:11:09;13.80;99.90
46490;DHT22;32204;49.160;8.580;2022-10-23T06:13:36;13.80;99.90
46490;DHT22;32204;49.160;8.580;2022-10-23T06:16:13;13.80;99.90
46490;DHT22;32204;49.160;8.580;2022-10-23T06:18:39;13.90;99.90
46490;DHT22;32204;49.160;8.580;2022-10-23T06:21:05;13.80;99.90
46490;DHT22;32204;49.160;8.580;2022-10-23T06:23:32;13.70;99.90
46490;DHT22;32204;49.160;8.580;2022-10-23T06:25:58;13.70;99.90
46490;DHT22;32204;49.160;8.580;2022-10-23T06:28:24;13.80;99.90
46490;DHT22;32204;49.160;8.580;2022-10-23T06:30:50;13.80;99.90
46490;DHT22;32204;49.160;8.580;2022-10-23T06:33:15;13.80;99.90
46490;DHT22;32204;49.160;8.580;2022-10-23T06:35:41;13.70;99.90
46490;DHT22;32204;49.160;8.580;2022-10-23T06:38:06;13.90;99.90
46490;DHT22;32204;49.160;8.580;2022-10-23T06:40:34;13.80;99.90
46490;DHT22;32204;49.160;8.580;2022-10-23T06:42:59;13.80;99.90
46490;DHT22;32204;49.160;8.580;2022-10-23T06:45:25;13.90;99.90
46490;DHT22;32204;49.160;8.580;2022-10-23T06:47:54;13.90;99.90
46490;DHT22;32204;49.160;8.580;2022-10-23T06:50:20;14.00;99.90
46490;DHT22;32204;49.160;8.580;2022-10-23T06:52:46;14.10;99.90
46490;DHT22;32204;49.160;8.580;2022-10-23T06:55:11;14.00;99.90
46490;DHT22;32204;49.160;8.580;2022-10-23T06:57:37;13.80;99.90
46490;DHT22;32204;49.160;8.580;2022-10-23T07:00:04;13.80;99.90
46490;DHT22;32204;49.160;8.580;2022-10-23T07:02:30;13.90;99.90
46490;DHT22;32204;49.160;8.580;2022-10-23T07:05:00;13.90;99.90
46490;DHT22;32204;49.160;8.580;2022-10-23T07:07:29;14.00;99.90
46490;DHT22;32204;49.160;8.580;2022-10-23T07:09:59;14.10;99.90
46490;DHT22;32204;49.160;8.580;2022-10-23T07:12:24;14.20;99.90
46490;DHT22;32204;49.160;8.580;2022-10-23T07:14:50;14.20;99.90
46490;DHT22;32204;49.160;8.580;2022-10-23T07:17:15;14.30;99.90
46490;DHT22;32204;49.160;8.580;2022-10-23T07:19:41;14.30;99.90
46490;DHT22;32204;49.160;8.580;2022-10-23T07:22:07;14.40;99.90
46490;DHT22;32204;49.160;8.580;2022-10-23T07:24:32;14.50;99.90
46490;DHT22;32204;49.160;8.580;2022-10-23T07:27:03;14.40;99.90
46490;DHT22;32204;49.160;8.580;2022-10-23T07:29:30;14.40;99.90
46490;DHT22;32204;49.160;8.580;2022-10-23T07:31:55;14.30;99.90
46490;DHT22;32204;49.160;8.580;2022-10-23T07:34:22;14.40;99.90
46490;DHT22;32204;49.160;8.580;2022-10-23T07:36:48;14.50;99.90
46490;DHT22;32204;49.160;8.580;2022-10-23T07:39:14;14.60;99.90
46490;DHT22;32204;49.160;8.580;2022-10-23T07:41:39;14.70;99.90
46490;DHT22;32204;49.160;8.580;2022-10-23T07:44:05;14.90;99.90
46490;DHT22;32204;49.160;8.580;2022-10-23T07:46:30;14.90;99.90
46490;DHT22;32204;49.160;8.580;2022-10-23T07:48:56;14.80;99.90
46490;DHT22;32204;49.160;8.580;2022-10-23T07:51:22;14.70;99.90
46490;DHT22;32204;49.160;8.580;2022-10-23T07:53:47;14.80;99.90
46490;DHT22;32204;49.160;8.580;2022-10-23T07:56:21;14.70;99.90
46490;DHT22;32204;49.160;8.580;2022-10-23T07:58:48;14.80;99.90
46490;DHT22;32204;49.160;8.580;2022-10-23T08:01:17;14.80;99.90
46490;DHT22;32204;49.160;8.580;2022-10-23T08:03:43;15.00;99.90
46490;DHT22;32204;49.160;8.580;2022-10-23T08:06:09;15.10;99.90
46490;DHT22;32204;49.160;8.580;2022-10-23T08:08:35;15.20;99.90
46490;DHT22;32204;49.160;8.580;2022-10-23T08:11:01;15.40;99.90
46490;DHT22;32204;49.160;8.580;2022-10-23T08:13:26;15.40;97.90
46490;DHT22;32204;49.160;8.580;2022-10-23T08:15:52;15.40;87.20
46490;DHT22;32204;49.160;8.580;2022-10-23T08:18:18;15.50;93.30
46490;DHT22;32204;49.160;8.580;2022-10-23T08:20:45;15.60;69.50
46490;DHT22;32204;49.160;8.580;2022-10-23T08:23:12;15.70;74.10
46490;DHT22;32204;49.160;8.580;2022-10-23T08:25:38;15.80;1.00
46490;DHT22;32204;49.160;8.580;2022-10-23T08:28:05;15.80;1.00
46490;DHT22;32204;49.160;8.580;2022-10-23T08:30:31;15.80;1.00
46490;DHT22;32204;49.160;8.580;2022-10-23T08:32:57;15.90;1.00
46490;DHT22;32204;49.160;8.580;2022-10-23T08:35:22;15.90;1.00
46490;DHT22;32204;49.160;8.580;2022-10-23T08:37:48;16.00;1.00
46490;DHT22;32204;49.160;8.580;2022-10-23T08:40:21;16.10;1.00
46490;DHT22;32204;49.160;8.580;2022-10-23T08:42:55;16.20;1.00
46490;DHT22;32204;49.160;8.580;2022-10-23T08:45:34;16.30;1.00
46490;DHT22;32204;49.160;8.580;2022-10-23T08:48:27;16.60;1.00
46490;DHT22;32204;49.160;8.580;2022-10-23T08:50:57;16.70;1.00
46490;DHT22;32204;49.160;8.580;2022-10-23T08:53:55;16.70;1.00
46490;DHT22;32204;49.160;8.580;2022-10-23T08:56:26;16.90;1.00
46490;DHT22;32204;49.160;8.580;2022-10-23T08:59:16;16.90;1.00
46490;DHT22;32204;49.160;8.580;2022-10-23T09:01:51;17.10;1.00
46490;DHT22;32204;49.160;8.580;2022-10-23T09:04:17;17.00;1.00
46490;DHT22;32204;49.160;8.580;2022-10-23T09:12:17;17.00;1.00
46490;DHT22;32204;49.160;8.580;2022-10-23T09:17:41;17.20;1.00
46490;DHT22;32204;49.160;8.580;2022-10-23T09:20:25;17.40;1.00
46490;DHT22;32204;49.160;8.580;2022-10-23T09:23:07;17.30;99.90
46490;DHT22;32204;49.160;8.580;2022-10-23T09:25:39;17.30;99.90
46490;DHT22;32204;49.160;8.580;2022-10-23T09:28:05;17.40;99.90
46490;DHT22;32204;49.160;8.580;2022-10-23T09:30:35;17.60;99.90
46490;DHT22;32204;49.160;8.580;2022-10-23T09:35:38;18.00;99.90
46490;DHT22;32204;49.160;8.580;2022-10-23T09:38:30;18.10;1.00
46490;DHT22;32204;49.160;8.580;2022-10-23T09:40:59;18.10;22.70
46490;DHT22;32204;49.160;8.580;2022-10-23T09:43:26;18.30;99.90
46490;DHT22;32204;49.160;8.580;2022-10-23T09:45:58;18.50;1.00
46490;DHT22;32204;49.160;8.580;2022-10-23T09:48:24;18.60;1.00
46490;DHT22;32204;49.160;8.580;2022-10-23T09:50:53;18.70;99.90
46490;DHT22;32204;49.160;8.580;2022-10-23T09:53:30;18.80;1.00
46490;DHT22;32204;49.160;8.580;2022-10-23T09:56:04;19.00;1.00
46490;DHT22;32204;49.160;8.580;2022-10-23T09:58:37;19.10;99.90
46490;DHT22;32204;49.160;8.580;2022-10-23T10:01:04;19.00;1.00
46490;DHT22;32204;49.160;8.580;2022-10-23T10:03:30;19.10;99.90
46490;DHT22;32204;49.160;8.580;2022-10-23T10:06:02;19.20;99.90
46490;DHT22;32204;49.160;8.580;2022-10-23T10:08:42;19.30;18.70
46490;DHT22;32204;49.160;8.580;2022-10-23T10:14:06;19.30;99.90
46490;DHT22;32204;49.160;8.580;2022-10-23T10:22:34;19.10;1.00
46490;DHT22;32204;49.160;8.580;2022-10-23T10:28:18;19.40;1.00
46490;DHT22;32204;49.160;8.580;2022-10-23T10:31:04;19.50;1.00
46490;DHT22;32204;49.160;8.580;2022-10-23T10:39:00;19.60;99.90
46490;DHT22;32204;49.160;8.580;2022-10-23T10:47:12;19.50;99.90
46490;DHT22;32204;49.160;8.580;2022-10-23T10:49:54;19.50;1.00
46490;DHT22;32204;49.160;8.580;2022-10-23T10:57:45;19.60;1.00
46490;DHT22;32204;49.160;8.580;2022-10-23T11:00:21;19.60;1.00
46490;DHT22;32204;49.160;8.580;2022-10-23T11:03:00;19.70;1.00
46490;DHT22;32204;49.160;8.580;2022-10-23T11:05:37;20.00;99.90
46490;DHT22;32204;49.160;8.580;2022-10-23T11:08:10;20.00;99.90
46490;DHT22;32204;49.160;8.580;2022-10-23T11:10:41;20.00;99.90
46490;DHT22;32204;49.160;8.580;2022-10-23T11:13:25;20.00;99.90
46490;DHT22;32204;49.160;8.580;2022-10-23T11:15:51;20.10;99.90
46490;DHT22;32204;49.160;8.580;2022-10-23T11:18:26;20.10;99.90
46490;DHT22;32204;49.160;8.580;2022-10-23T11:21:26;20.10;99.90
46490;DHT22;32204;49.160;8.580;2022-10-23T11:24:06;20.20;99.90
46490;DHT22;32204;49.160;8.580;2022-10-23T11:26:53;20.30;1.00
46490;DHT22;32204;49.160;8.580;2022-10-23T11:29:48;20.30;1.00
46490;DHT22;32204;49.160;8.580;2022-10-23T11:32:45;20.20;1.00
46490;DHT22;32204;49.160;8.580;2022-10-23T11:36:12;20.30;74.90
46490;DHT22;32204;49.160;8.580;2022-10-23T11:38:33;20.30;44.90
46490;DHT22;32204;49.160;8.580;2022-10-23T11:41:45;20.30;1.00
46490;DHT22;32204;49.160;8.580;2022-10-23T11:43:59;20.40;57.00
46490;DHT22;32204;49.160;8.580;2022-10-23T11:46:36;20.40;1.00
46490;DHT22;32204;49.160;8.580;2022-10-23T11:49:04;20.50;99.90
46490;DHT22;32204;49.160;8.580;2022-10-23T11:51:38;20.60;99.90
46490;DHT22;32204;49.160;8.580;2022-10-23T11:59:26;21.00;8.40
46490;DHT22;32204;49.160;8.580;2022-10-23T12:01:54;21.10;1.00
46490;DHT22;32204;49.160;8.580;2022-10-23T12:04:35;21.00;1.00
46490;DHT22;32204;49.160;8.580;2022-10-23T12:07:34;21.10;99.90
46490;DHT22;32204;49.160;8.580;2022-10-23T12:12:35;20.80;99.90
46490;DHT22;32204;49.160;8.580;2022-10-23T12:17:35;20.80;99.90
46490;DHT22;32204;49.160;8.580;2022-10-23T12:22:57;21.00;99.90
46490;DHT22;32204;49.160;8.580;2022-10-23T12:39:00;21.70;99.90
46490;DHT22;32204;49.160;8.580;2022-10-23T12:41:31;21.60;99.90
46490;DHT22;32204;49.160;8.580;2022-10-23T12:44:03;21.80;1.00
46490;DHT22;32204;49.160;8.580;2022-10-23T12:46:39;21.80;99.90
46490;DHT22;32204;49.160;8.580;2022-10-23T12:49:21;21.90;82.40
46490;DHT22;32204;49.160;8.580;2022-10-23T12:52:16;21.80;99.90
46490;DHT22;32204;49.160;8.580;2022-10-23T12:54:42;21.70;99.90
46490;DHT22;32204;49.160;8.580;2022-10-23T12:57:23;21.80;99.90
46490;DHT22;32204;49.160;8.580;2022-10-23T12:59:54;21.70;99.90
46490;DHT22;32204;49.160;8.580;2022-10-23T13:02:23;21.70;1.00
46490;DHT22;32204;49.160;8.580;2022-10-23T13:04:51;21.70;1.00
46490;DHT22;32204;49.160;8.580;2022-10-23T13:07:20;21.70;1.00
46490;DHT22;32204;49.160;8.580;2022-10-23T13:09:48;21.70;1.00
46490;DHT22;32204;49.160;8.580;2022-10-23T13:12:28;21.80;99.90
46490;DHT22;32204;49.160;8.580;2022-10-23T13:15:14;21.90;99.90
46490;DHT22;32204;49.160;8.580;2022-10-23T13:18:06;22.00;92.20
46490;DHT22;32204;49.160;8.580;2022-10-23T13:20:40;22.10;99.90
46490;DHT22;32204;49.160;8.580;2022-10-23T13:23:30;22.10;1.00
46490;DHT22;32204;49.160;8.580;2022-10-23T13:28:50;22.10;1.00
46490;DHT22;32204;49.160;8.580;2022-10-23T13:33:42;22.20;1.00
46490;DHT22;32204;49.160;8.580;2022-10-23T13:38:43;22.50;99.90
46490;DHT22;32204;49.160;8.580;2022-10-23T13:41:17;22.60;1.00
46490;DHT22;32204;49.160;8.580;2022-10-23T13:43:45;22.50;99.90
46490;DHT22;32204;49.160;8.580;2022-10-23T13:46:20;22.50;1.00
46490;DHT22;32204;49.160;8.580;2022-10-23T13:48:46;22.50;99.90
46490;DHT22;32204;49.160;8.580;2022-10-23T13:51:23;22.60;99.90
46490;DHT22;32204;49.160;8.580;2022-10-23T13:53:50;22.70;89.70
46490;DHT22;32204;49.160;8.580;2022-10-23T13:56:18;22.70;1.00
46490;DHT22;32204;49.160;8.580;2022-10-23T13:58:44;22.70;18.10
46490;DHT22;32204;49.160;8.580;2022-10-23T14:03:48;22.60;1.00
46490;DHT22;32204;49.160;8.580;2022-10-23T14:06:13;22.60;1.00
46490;DHT22;32204;49.160;8.580;2022-10-23T14:08:39;22.60;94.40
46490;DHT22;32204;49.160;8.580;2022-10-23T14:11:05;22.60;99.90
46490;DHT22;32204;49.160;8.580;2022-10-23T14:13:30;22.60;99.90
46490;DHT22;32204;49.160;8.580;2022-10-23T14:15:56;22.50;99.90
46490;DHT22;32204;49.160;8.580;2022-10-23T14:18:22;22.40;99.90
46490;DHT22;32204;49.160;8.580;2022-10-23T14:20:48;22.40;99.90
46490;DHT22;32204;49.160;8.580;2022-10-23T14:23:14;22.40;1.00
46490;DHT22;32204;49.160;8.580;2022-10-23T14:25:39;22.30;1.00
46490;DHT22;32204;49.160;8.580;2022-10-23T14:28:05;22.30;1.00
46490;DHT22;32204;49.160;8.580;2022-10-23T14:30:30;22.20;99.30
46490;DHT22;32204;49.160;8.580;2022-10-23T14:32:56;22.20;99.90
46490;DHT22;32204;49.160;8.580;2022-10-23T14:35:22;22.10;39.50
46490;DHT22;32204;49.160;8.580;2022-10-23T14:37:49;22.10;99.90
46490;DHT22;32204;49.160;8.580;2022-10-23T14:40:15;22.00;99.90
46490;DHT22;32204;49.160;8.580;2022-10-23T14:42:41;22.00;99.90
46490;DHT22;32204;49.160;8.580;2022-10-23T14:45:07;22.00;99.90
46490;DHT22;32204;49.160;8.580;2022-10-23T14:47:32;22.00;99.90
46490;DHT22;32204;49.160;8.580;2022-10-23T14:49:58;21.90;99.90
46490;DHT22;32204;49.160;8.580;2022-10-23T14:52:24;21.90;99.90
46490;DHT22;32204;49.160;8.580;2022-10-23T14:54:51;21.90;99.90
46490;DHT22;32204;49.160;8.580;2022-10-23T14:57:18;21.90;99.90
46490;DHT22;32204;49.160;8.580;2022-10-23T14:59:45;21.90;1.00
46490;DHT22;32204;49.160;8.580;2022-10-23T15:02:11;21.90;1.00
46490;DHT22;32204;49.160;8.580;2022-10-23T15:04:38;21.90;99.90
46490;DHT22;32204;49.160;8.580;2022-10-23T15:07:04;21.90;1.00
46490;DHT22;32204;49.160;8.580;2022-10-23T15:09:29;21.90;99.90
46490;DHT22;32204;49.160;8.580;2022-10-23T15:11:59;21.90;1.00
46490;DHT22;32204;49.160;8.580;2022-10-23T15:14:24;21.80;1.00
46490;DHT22;32204;49.160;8.580;2022-10-23T15:16:50;21.80;10.80
46490;DHT22;32204;49.160;8.580;2022-10-23T15:19:16;21.80;99.90
46490;DHT22;32204;49.160;8.580;2022-10-23T15:21:41;21.70;99.90
46490;DHT22;32204;49.160;8.580;2022-10-23T15:24:07;21.70;99.90
46490;DHT22;32204;49.160;8.580;2022-10-23T15:26:33;21.60;99.90
46490;DHT22;32204;49.160;8.580;2022-10-23T15:29:00;21.50;99.90
46490;DHT22;32204;49.160;8.580;2022-10-23T15:33:58;21.60;1.00
46490;DHT22;32204;49.160;8.580;2022-10-23T15:36:25;21.60;99.90
46490;DHT22;32204;49.160;8.580;2022-10-23T15:38:51;21.50;1.00
46490;DHT22;32204;49.160;8.580;2022-10-23T15:41:21;21.30;1.00
46490;DHT22;32204;49.160;8.580;2022-10-23T15:43:49;21.10;99.90
46490;DHT22;32204;49.160;8.580;2022-10-23T15:46:16;21.20;53.20
46490;DHT22;32204;49.160;8.580;2022-10-23T15:48:41;21.20;44.10
46490;DHT22;32204;49.160;8.580;2022-10-23T15:51:07;21.10;99.90
46490;DHT22;32204;49.160;8.580;2022-10-23T15:53:32;21.00;1.00
46490;DHT22;32204;49.160;8.580;2022-10-23T15:55:58;21.00;99.90
46490;DHT22;32204;49.160;8.580;2022-10-23T15:58:24;20.90;1.00
46490;DHT22;32204;49.160;8.580;2022-10-23T16:00:50;21.00;1.00
46490;DHT22;32204;49.160;8.580;2022-10-23T16:03:15;20.90;14.20
46490;DHT22;32204;49.160;8.580;2022-10-23T16:05:41;20.80;1.00
46490;DHT22;32204;49.160;8.580;2022-10-23T16:08:06;20.70;99.90
46490;DHT22;32204;49.160;8.580;2022-10-23T16:10:32;20.60;1.00
46490;DHT22;32204;49.160;8.580;2022-10-23T16:13:02;20.60;1.00
46490;DHT22;32204;49.160;8.580;2022-10-23T16:15:29;20.60;99.90
46490;DHT22;32204;49.160;8.580;2022-10-23T16:17:54;20.60;99.90
46490;DHT22;32204;49.160;8.580;2022-10-23T16:20:20;20.50;99.90
46490;DHT22;32204;49.160;8.580;2022-10-23T16:22:48;20.40;7.20
46490;DHT22;32204;49.160;8.580;2022-10-23T16:25:14;20.30;99.90
46490;DHT22;32204;49.160;8.580;2022-10-23T16:27:39;20.20;99.90
46490;DHT22;32204;49.160;8.580;2022-10-23T16:30:06;20.20;99.90
46490;DHT22;32204;49.160;8.580;2022-10-23T16:32:34;20.20;99.90
46490;DHT22;32204;49.160;8.580;2022-10-23T16:35:02;20.10;51.40
46490;DHT22;32204;49.160;8.580;2022-10-23T16:37:28;20.10;1.00
46490;DHT22;32204;49.160;8.580;2022-10-23T16:39:53;20.10;1.00
46490;DHT22;32204;49.160;8.580;2022-10-23T16:42:19;20.10;99.90
46490;DHT22;32204;49.160;8.580;2022-10-23T16:44:44;20.00;79.80
46490;DHT22;32204;49.160;8.580;2022-10-23T16:47:10;20.10;91.30
46490;DHT22;32204;49.160;8.580;2022-10-23T16:49:35;20.10;1.00
46490;DHT22;32204;49.160;8.580;2022-10-23T16:52:01;20.10;99.90
46490;DHT22;32204;49.160;8.580;2022-10-23T16:54:27;20.00;1.00
46490;DHT22;32204;49.160;8.580;2022-10-23T16:56:52;20.00;1.00
46490;DHT22;32204;49.160;8.580;2022-10-23T16:59:18;20.00;99.90
46490;DHT22;32204;49.160;8.580;2022-10-23T17:01:43;20.00;99.90
46490;DHT22;32204;49.160;8.580;2022-10-23T17:04:09;20.10;99.90
46490;DHT22;32204;49.160;8.580;2022-10-23T17:06:35;20.10;99.90
46490;DHT22;32204;49.160;8.580;2022-10-23T17:09:02;20.10;99.90
46490;DHT22;32204;49.160;8.580;2022-10-23T17:11:30;20.10;99.90
46490;DHT22;32204;49.160;8.580;2022-10-23T17:13:58;20.20;1.00
46490;DHT22;32204;49.160;8.580;2022-10-23T17:16:36;20.20;1.00
46490;DHT22;32204;49.160;8.580;2022-10-23T17:19:03;20.20;28.60
46490;DHT22;32204;49.160;8.580;2022-10-23T17:21:34;20.20;99.90
46490;DHT22;32204;49.160;8.580;2022-10-23T17:24:00;20.00;1.00
46490;DHT22;32204;49.160;8.580;2022-10-23T17:26:26;19.80;1.00
46490;DHT22;32204;49.160;8.580;2022-10-23T17:28:52;19.80;1.00
46490;DHT22;32204;49.160;8.580;2022-10-23T17:31:23;19.70;1.00
46490;DHT22;32204;49.160;8.580;2022-10-23T17:33:52;19.60;26.40
46490;DHT22;32204;49.160;8.580;2022-10-23T17:36:19;19.40;91.30
46490;DHT22;32204;49.160;8.580;2022-10-23T17:38:46;19.30;90.00
46490;DHT22;32204;49.160;8.580;2022-10-23T17:41:13;19.10;99.90
46490;DHT22;32204;49.160;8.580;2022-10-23T17:43:40;18.80;99.90
46490;DHT22;32204;49.160;8.580;2022-10-23T17:46:07;18.60;99.90
46490;DHT22;32204;49.160;8.580;2022-10-23T17:48:33;18.40;99.90
46490;DHT22;32204;49.160;8.580;2022-10-23T17:51:05;18.20;99.90